Terminal Aerodrome Forecast
Issued by NWS Austin/San Antonio, TX

Home | Current Version | Previous Version | Text Only | Print | Product List | Glossary On
Versions: 1 2 3 4 5 6 7 8 9 10 11 12 13 14 15 16 17 18 19 20 21 22 23
000
FTUS44 KEWX 312000 AAA
TAFSAT
TAF AMD
KSAT 312042Z 3121/0124 10005KT 1SM -RA BR OVC003
     FM010300 15013KT 3SM BR OVC007
     FM011100 18003KT 1SM BR OVC004
     FM011700 24007KT 5SM BR OVC009=

USA.gov is the U.S. government's official web portal to all federal, state and local government web resources and services.